Pearl — PEARL — position and weather

sailwx.info

Track history (hours):
 
Tides and Currents Weather Stations Pressure Air Temp Water Temp Dewpoint Dewpoint Depression Visibility Wind Speed Wind Dir Waves Ship Positions

Pearl

Last reported at 2017-Dec-08 17:23 UTC. Time now 2017-Dec-16 07:17 UTC.
Position N 47°16' W 122°19'.

Length 38 m; draft 3.5 m.

Type: Pleasure craft. MMSI: 367639910.

Date/timePositionNaut miles runAvg speedWind from/ knotsBaromVisibWave heightAir tempDewpointWater temp
2017-Dec-08 17:23N 47°16' W 122°19'1847.7
2017-Dec-08 17:00N 47°05' W 122°40'1223.4
2017-Dec-08 16:29N 47°11' W 122°56'0 0.0
2017-Dec-08 14:34N 47°11' W 122°56'0 0.1
2017-Dec-08 14:26N 47°11' W 122°56'0 0.0
2017-Dec-08 14:00N 47°11' W 122°56'0 0.0
2017-Dec-08 13:28N 47°11' W 122°56'0 0.0
2017-Dec-08 12:59N 47°11' W 122°56'0 0.0
2017-Dec-08 12:28N 47°11' W 122°56'0 0.1
2017-Dec-08 11:59N 47°11' W 122°56'0 0.1
2017-Dec-08 11:30N 47°11' W 122°56'0 0.0
2017-Dec-08 10:58N 47°11' W 122°56'0 0.0
2017-Dec-08 10:30N 47°11' W 122°56'0 0.0
2017-Dec-08 10:00N 47°11' W 122°56'0 0.0
2017-Dec-08 09:30N 47°11' W 122°56'0 0.0
2017-Dec-08 09:00N 47°11' W 122°56'0 0.0
2017-Dec-08 08:29N 47°11' W 122°56'0 0.0
2017-Dec-08 07:59N 47°11' W 122°56'0 0.0
2017-Dec-08 07:30N 47°11' W 122°56'0 0.0
2017-Dec-08 07:00N 47°11' W 122°56'0 0.0
2017-Dec-08 06:30N 47°11' W 122°56'0 0.0
2017-Dec-08 06:00N 47°11' W 122°56'0 0.0
2017-Dec-08 05:30N 47°11' W 122°56'0 0.0
2017-Dec-08 02:34N 47°11' W 122°56'0 0.0
2017-Dec-08 02:19N 47°11' W 122°56'0 0.0
2017-Dec-08 01:23N 47°11' W 122°56'512.6
2017-Dec-08 01:00N 47°06' W 122°59'1 1.8
2017-Dec-08 00:31N 47°06' W 123°00'7 5.6
2017-Dec-07 23:15N 46°60' W 122°55'2 0.4
2017-Dec-07 18:58N 47°02' W 122°55'713.6
2017-Dec-07 18:29N 47°07' W 123°00'5 1.3
2017-Dec-07 15:07N 47°11' W 122°56'0 0.0
2017-Dec-07 13:54N 47°11' W 122°56'0 0.0
2017-Dec-07 13:29N 47°11' W 122°56'0 0.0
2017-Dec-07 13:00N 47°11' W 122°56'0 0.0
2017-Dec-07 12:30N 47°11' W 122°56'0 0.0
2017-Dec-07 12:00N 47°11' W 122°56'0 0.0
2017-Dec-07 11:30N 47°11' W 122°56'0 0.0
2017-Dec-07 11:00N 47°11' W 122°56'0 0.0
2017-Dec-07 10:29N 47°11' W 122°56'0 0.0
2017-Dec-07 10:00N 47°11' W 122°56'0 0.0
2017-Dec-07 09:28N 47°11' W 122°56'0 0.0
2017-Dec-07 08:59N 47°11' W 122°56'0 0.0
2017-Dec-07 08:28N 47°11' W 122°56'0 0.0
2017-Dec-07 07:58N 47°11' W 122°56'0 0.1
2017-Dec-07 07:30N 47°11' W 122°56'0 0.0
2017-Dec-07 06:58N 47°11' W 122°56'0 0.0
2017-Dec-07 06:30N 47°11' W 122°56'0 0.0
2017-Dec-07 06:00N 47°11' W 122°56'0 0.0
2017-Dec-07 05:30N 47°11' W 122°56'0 0.0
2017-Dec-07 04:00N 47°11' W 122°56'8 4.9
2017-Dec-07 02:20N 47°03' W 122°54'0 0.2
2017-Dec-07 02:00N 47°03' W 122°54'8 3.1
2017-Dec-06 23:19N 47°11' W 122°56'723.9
2017-Dec-06 23:00N 47°04' W 123°01'  
2017-Dec-04 10:24N 47°11' W 122°56'0 0.0
2017-Dec-04 10:00N 47°11' W 122°56'0 0.0
2017-Dec-04 09:28N 47°11' W 122°56'0 0.0
2017-Dec-04 09:00N 47°11' W 122°56'0 0.0
2017-Dec-04 08:29N 47°11' W 122°56'0 0.0
2017-Dec-04 08:01N 47°11' W 122°56'0 0.0
2017-Dec-04 07:30N 47°11' W 122°56'0 0.0
2017-Dec-04 06:59N 47°11' W 122°56'0 0.0
2017-Dec-04 06:30N 47°11' W 122°56'0 0.1
2017-Dec-04 06:00N 47°11' W 122°56'0 0.0
2017-Dec-04 03:31N 47°11' W 122°56'0 0.0
2017-Dec-04 03:27N 47°11' W 122°56'0 0.0
2017-Dec-04 02:46N 47°11' W 122°56'414.0
2017-Dec-04 02:30N 47°08' W 122°59'1020.8
2017-Dec-04 02:00N 47°04' W 122°45'  
2017-Dec-01 01:47N 47°09' W 122°34'413.9
2017-Dec-01 01:28N 47°05' W 122°38'1327.4
2017-Dec-01 01:00N 47°03' W 122°56'5 9.5
2017-Dec-01 00:30N 47°07' W 123°00'5 4.1
2017-Nov-30 23:16N 47°11' W 122°56'813.8
2017-Nov-30 22:40N 47°02' W 122°56'1 2.7
2017-Nov-30 22:13N 47°02' W 122°55'0 0.0
2017-Nov-30 21:59N 47°02' W 122°55'0 0.0
2017-Nov-30 21:28N 47°02' W 122°55'0 0.0
2017-Nov-30 20:59N 47°02' W 122°55'0 0.0
2017-Nov-30 20:29N 47°02' W 122°55'0 0.0
2017-Nov-30 17:06N 47°02' W 122°55'0 0.1
2017-Nov-30 17:00N 47°02' W 122°55'9 4.7
2017-Nov-30 15:03N 47°11' W 122°56'0 0.1
2017-Nov-30 14:59N 47°11' W 122°56'0 0.0
2017-Nov-30 14:30N 47°11' W 122°56'0 0.0
2017-Nov-30 13:57N 47°11' W 122°56'0 0.0
2017-Nov-30 13:28N 47°11' W 122°56'0 0.0
2017-Nov-30 13:00N 47°11' W 122°56'0 0.0
2017-Nov-30 12:30N 47°11' W 122°56'0 0.0
2017-Nov-30 12:00N 47°11' W 122°56'0 0.0
2017-Nov-30 11:30N 47°11' W 122°56'0 0.1
2017-Nov-30 10:58N 47°11' W 122°56'0 0.0
2017-Nov-30 10:30N 47°11' W 122°56'0 0.0
2017-Nov-30 10:00N 47°11' W 122°56'0 0.0
2017-Nov-30 09:27N 47°11' W 122°56'0 0.0
2017-Nov-30 08:58N 47°11' W 122°56'0 0.0
2017-Nov-30 08:30N 47°11' W 122°56'0 0.0
2017-Nov-30 07:59N 47°11' W 122°56'0 0.0
2017-Nov-30 07:27N 47°11' W 122°56'0 0.0
2017-Nov-30 06:59N 47°11' W 122°56'0 0.0
2017-Nov-30 06:30N 47°11' W 122°56'0 0.0
2017-Nov-30 05:59N 47°11' W 122°56'0 0.0
2017-Nov-30 01:43N 47°11' W 122°56'0 0.0
2017-Nov-30 00:56N 47°11' W 122°56'2 3.7
2017-Nov-30 00:30N 47°09' W 122°57'714.1
2017-Nov-30 00:00N 47°15' W 123°03'2035.2
2017-Nov-29 23:26N 47°31' W 122°44'911.5
2017-Nov-29 22:38N 47°40' W 122°42'0 0.1
2017-Nov-29 22:24N 47°40' W 122°42'1533.7
2017-Nov-29 21:58N 47°26' W 122°37'2043.1
2017-Nov-29 21:30N 47°05' W 122°38'1321.3
2017-Nov-29 20:54N 47°03' W 122°56'1 0.9
2017-Nov-29 19:39N 47°02' W 122°55'0 0.0
2017-Nov-29 19:22N 47°02' W 122°55'0 0.0
2017-Nov-29 17:41N 47°02' W 122°55'0 0.0
2017-Nov-29 17:11N 47°02' W 122°55'1 6.2
2017-Nov-29 16:59N 47°02' W 122°56'8 4.4
2017-Nov-29 15:05N 47°11' W 122°56'0 0.0
2017-Nov-29 14:19N 47°11' W 122°56'0 0.0
2017-Nov-29 13:58N 47°11' W 122°56'0 0.0
2017-Nov-29 13:30N 47°11' W 122°56'0 0.0
2017-Nov-29 13:00N 47°11' W 122°56'0 0.0
2017-Nov-29 12:30N 47°11' W 122°56'0 0.0
2017-Nov-29 12:00N 47°11' W 122°56'0 0.0
2017-Nov-29 11:29N 47°11' W 122°56'0 0.1
2017-Nov-29 11:00N 47°11' W 122°56'0 0.0
2017-Nov-29 10:13N 47°11' W 122°56'0 0.0
2017-Nov-29 09:06N 47°11' W 122°56'0 0.0
2017-Nov-29 06:18N 47°11' W 122°56'0 0.0
2017-Nov-29 06:00N 47°11' W 122°56'0 0.0
2017-Nov-29 02:20N 47°11' W 122°56'927.0
2017-Nov-29 02:00N 47°02' W 122°55'2 1.1
2017-Nov-29 00:23N 47°00' W 122°55'1 0.5
2017-Nov-28 23:09N 46°60' W 122°55'1 8.6
2017-Nov-28 23:00N 47°01' W 122°54'1 1.5
2017-Nov-28 22:14N 47°02' W 122°55'0 0.0
2017-Nov-28 21:40N 47°02' W 122°55'0 0.0
2017-Nov-28 21:08N 47°02' W 122°55'0 0.0
2017-Nov-28 20:53N 47°02' W 122°55'0 0.0
2017-Nov-28 20:05N 47°02' W 122°55'0 0.0
2017-Nov-28 18:01N 47°02' W 122°55'0 0.1
2017-Nov-28 17:57N 47°02' W 122°55'919.3
2017-Nov-28 17:29N 47°11' W 122°56'  
Track history (hours):
 
Tides and Currents Weather Stations Pressure Air Temp Water Temp Dewpoint Dewpoint Depression Visibility Wind Speed Wind Dir Waves Ship Positions

Pearl

Last reported at 2017-Dec-08 17:23 UTC. Time now 2017-Dec-16 07:17 UTC.
Position N 47°16' W 122°19'.

Length 38 m; draft 3.5 m.

Type: Pleasure craft. MMSI: 367639910.

Date/timePositionNaut miles runAvg speedWind from/ knotsBaromVisibWave heightAir tempDewpointWater temp
2017-Dec-08 17:23N 47°16' W 122°19'1847.7
2017-Dec-08 17:00N 47°05' W 122°40'1223.4
2017-Dec-08 16:29N 47°11' W 122°56'0 0.0
2017-Dec-08 14:34N 47°11' W 122°56'0 0.1
2017-Dec-08 14:26N 47°11' W 122°56'0 0.0
2017-Dec-08 14:00N 47°11' W 122°56'0 0.0
2017-Dec-08 13:28N 47°11' W 122°56'0 0.0
2017-Dec-08 12:59N 47°11' W 122°56'0 0.0
2017-Dec-08 12:28N 47°11' W 122°56'0 0.1
2017-Dec-08 11:59N 47°11' W 122°56'0 0.1
2017-Dec-08 11:30N 47°11' W 122°56'0 0.0
2017-Dec-08 10:58N 47°11' W 122°56'0 0.0
2017-Dec-08 10:30N 47°11' W 122°56'0 0.0
2017-Dec-08 10:00N 47°11' W 122°56'0 0.0
2017-Dec-08 09:30N 47°11' W 122°56'0 0.0
2017-Dec-08 09:00N 47°11' W 122°56'0 0.0
2017-Dec-08 08:29N 47°11' W 122°56'0 0.0
2017-Dec-08 07:59N 47°11' W 122°56'0 0.0
2017-Dec-08 07:30N 47°11' W 122°56'0 0.0
2017-Dec-08 07:00N 47°11' W 122°56'0 0.0
2017-Dec-08 06:30N 47°11' W 122°56'0 0.0
2017-Dec-08 06:00N 47°11' W 122°56'0 0.0
2017-Dec-08 05:30N 47°11' W 122°56'0 0.0
2017-Dec-08 02:34N 47°11' W 122°56'0 0.0
2017-Dec-08 02:19N 47°11' W 122°56'0 0.0
2017-Dec-08 01:23N 47°11' W 122°56'512.6
2017-Dec-08 01:00N 47°06' W 122°59'1 1.8
2017-Dec-08 00:31N 47°06' W 123°00'7 5.6
2017-Dec-07 23:15N 46°60' W 122°55'2 0.4
2017-Dec-07 18:58N 47°02' W 122°55'713.6
2017-Dec-07 18:29N 47°07' W 123°00'5 1.3
2017-Dec-07 15:07N 47°11' W 122°56'0 0.0
2017-Dec-07 13:54N 47°11' W 122°56'0 0.0
2017-Dec-07 13:29N 47°11' W 122°56'0 0.0
2017-Dec-07 13:00N 47°11' W 122°56'0 0.0
2017-Dec-07 12:30N 47°11' W 122°56'0 0.0
2017-Dec-07 12:00N 47°11' W 122°56'0 0.0
2017-Dec-07 11:30N 47°11' W 122°56'0 0.0
2017-Dec-07 11:00N 47°11' W 122°56'0 0.0
2017-Dec-07 10:29N 47°11' W 122°56'0 0.0
2017-Dec-07 10:00N 47°11' W 122°56'0 0.0
2017-Dec-07 09:28N 47°11' W 122°56'0 0.0
2017-Dec-07 08:59N 47°11' W 122°56'0 0.0
2017-Dec-07 08:28N 47°11' W 122°56'0 0.0
2017-Dec-07 07:58N 47°11' W 122°56'0 0.1
2017-Dec-07 07:30N 47°11' W 122°56'0 0.0
2017-Dec-07 06:58N 47°11' W 122°56'0 0.0
2017-Dec-07 06:30N 47°11' W 122°56'0 0.0
2017-Dec-07 06:00N 47°11' W 122°56'0 0.0
2017-Dec-07 05:30N 47°11' W 122°56'0 0.0
2017-Dec-07 04:00N 47°11' W 122°56'8 4.9
2017-Dec-07 02:20N 47°03' W 122°54'0 0.2
2017-Dec-07 02:00N 47°03' W 122°54'8 3.1
2017-Dec-06 23:19N 47°11' W 122°56'723.9
2017-Dec-06 23:00N 47°04' W 123°01'  
2017-Dec-04 10:24N 47°11' W 122°56'0 0.0
2017-Dec-04 10:00N 47°11' W 122°56'0 0.0
2017-Dec-04 09:28N 47°11' W 122°56'0 0.0
2017-Dec-04 09:00N 47°11' W 122°56'0 0.0
2017-Dec-04 08:29N 47°11' W 122°56'0 0.0
2017-Dec-04 08:01N 47°11' W 122°56'0 0.0
2017-Dec-04 07:30N 47°11' W 122°56'0 0.0
2017-Dec-04 06:59N 47°11' W 122°56'0 0.0
2017-Dec-04 06:30N 47°11' W 122°56'0 0.1
2017-Dec-04 06:00N 47°11' W 122°56'0 0.0
2017-Dec-04 03:31N 47°11' W 122°56'0 0.0
2017-Dec-04 03:27N 47°11' W 122°56'0 0.0
2017-Dec-04 02:46N 47°11' W 122°56'414.0
2017-Dec-04 02:30N 47°08' W 122°59'1020.8
2017-Dec-04 02:00N 47°04' W 122°45'  
2017-Dec-01 01:47N 47°09' W 122°34'413.9
2017-Dec-01 01:28N 47°05' W 122°38'1327.4
2017-Dec-01 01:00N 47°03' W 122°56'5 9.5
2017-Dec-01 00:30N 47°07' W 123°00'5 4.1
2017-Nov-30 23:16N 47°11' W 122°56'813.8
2017-Nov-30 22:40N 47°02' W 122°56'1 2.7
2017-Nov-30 22:13N 47°02' W 122°55'0 0.0
2017-Nov-30 21:59N 47°02' W 122°55'0 0.0
2017-Nov-30 21:28N 47°02' W 122°55'0 0.0
2017-Nov-30 20:59N 47°02' W 122°55'0 0.0
2017-Nov-30 20:29N 47°02' W 122°55'0 0.0
2017-Nov-30 17:06N 47°02' W 122°55'0 0.1
2017-Nov-30 17:00N 47°02' W 122°55'9 4.7
2017-Nov-30 15:03N 47°11' W 122°56'0 0.1
2017-Nov-30 14:59N 47°11' W 122°56'0 0.0
2017-Nov-30 14:30N 47°11' W 122°56'0 0.0
2017-Nov-30 13:57N 47°11' W 122°56'0 0.0
2017-Nov-30 13:28N 47°11' W 122°56'0 0.0
2017-Nov-30 13:00N 47°11' W 122°56'0 0.0
2017-Nov-30 12:30N 47°11' W 122°56'0 0.0
2017-Nov-30 12:00N 47°11' W 122°56'0 0.0
2017-Nov-30 11:30N 47°11' W 122°56'0 0.1
2017-Nov-30 10:58N 47°11' W 122°56'0 0.0
2017-Nov-30 10:30N 47°11' W 122°56'0 0.0
2017-Nov-30 10:00N 47°11' W 122°56'0 0.0
2017-Nov-30 09:27N 47°11' W 122°56'0 0.0
2017-Nov-30 08:58N 47°11' W 122°56'0 0.0
2017-Nov-30 08:30N 47°11' W 122°56'0 0.0
2017-Nov-30 07:59N 47°11' W 122°56'0 0.0
2017-Nov-30 07:27N 47°11' W 122°56'0 0.0
2017-Nov-30 06:59N 47°11' W 122°56'0 0.0
2017-Nov-30 06:30N 47°11' W 122°56'0 0.0
2017-Nov-30 05:59N 47°11' W 122°56'0 0.0
2017-Nov-30 01:43N 47°11' W 122°56'0 0.0
2017-Nov-30 00:56N 47°11' W 122°56'2 3.7
2017-Nov-30 00:30N 47°09' W 122°57'714.1
2017-Nov-30 00:00N 47°15' W 123°03'2035.2
2017-Nov-29 23:26N 47°31' W 122°44'911.5
2017-Nov-29 22:38N 47°40' W 122°42'0 0.1
2017-Nov-29 22:24N 47°40' W 122°42'1533.7
2017-Nov-29 21:58N 47°26' W 122°37'2043.1
2017-Nov-29 21:30N 47°05' W 122°38'1321.3
2017-Nov-29 20:54N 47°03' W 122°56'1 0.9
2017-Nov-29 19:39N 47°02' W 122°55'0 0.0
2017-Nov-29 19:22N 47°02' W 122°55'0 0.0
2017-Nov-29 17:41N 47°02' W 122°55'0 0.0
2017-Nov-29 17:11N 47°02' W 122°55'1 6.2
2017-Nov-29 16:59N 47°02' W 122°56'8 4.4
2017-Nov-29 15:05N 47°11' W 122°56'0 0.0
2017-Nov-29 14:19N 47°11' W 122°56'0 0.0
2017-Nov-29 13:58N 47°11' W 122°56'0 0.0
2017-Nov-29 13:30N 47°11' W 122°56'0 0.0
2017-Nov-29 13:00N 47°11' W 122°56'0 0.0
2017-Nov-29 12:30N 47°11' W 122°56'0 0.0
2017-Nov-29 12:00N 47°11' W 122°56'0 0.0
2017-Nov-29 11:29N 47°11' W 122°56'0 0.1
2017-Nov-29 11:00N 47°11' W 122°56'0 0.0
2017-Nov-29 10:13N 47°11' W 122°56'0 0.0
2017-Nov-29 09:06N 47°11' W 122°56'0 0.0
2017-Nov-29 06:18N 47°11' W 122°56'0 0.0
2017-Nov-29 06:00N 47°11' W 122°56'0 0.0
2017-Nov-29 02:20N 47°11' W 122°56'927.0
2017-Nov-29 02:00N 47°02' W 122°55'2 1.1
2017-Nov-29 00:23N 47°00' W 122°55'1 0.5
2017-Nov-28 23:09N 46°60' W 122°55'1 8.6
2017-Nov-28 23:00N 47°01' W 122°54'1 1.5
2017-Nov-28 22:14N 47°02' W 122°55'0 0.0
2017-Nov-28 21:40N 47°02' W 122°55'0 0.0
2017-Nov-28 21:08N 47°02' W 122°55'0 0.0
2017-Nov-28 20:53N 47°02' W 122°55'0 0.0
2017-Nov-28 20:05N 47°02' W 122°55'0 0.0
2017-Nov-28 18:01N 47°02' W 122°55'0 0.1
2017-Nov-28 17:57N 47°02' W 122°55'919.3
2017-Nov-28 17:29N 47°11' W 122°56'  

Dump ship's entire track history